Meiringen Airport LSMM

Flugplatz Daten

Name: Meiringen Airport

Ident: LSMM

Lat: 46,74330139

Long: 8,109999657

Platzhöhe: 1895 ft

IataCode:

City:

Metar

2022/08/10 20:20
LSMM 102020Z AUTO 11011KT 070V160 8000NDV NCD 23/12 Q1020 RMK

Taf

2022/08/10 17:00
TAF LSMM 101625Z 1017/1123 10007KT CAVOK
TEMPO 1111/1117 04012G22KT 9999 FEW060
Gewünschte Webcam nicht vorhanden? Dann fügen Sie eine hinzu. Sie wird dann so schnell wie möglich freigeschaltet
Url: Title: